Trinity — WDC2625 — position and weather

sailwx.info

Track history (hours):
 
Tides and Currents Weather Stations Pressure Air Temp Water Temp Dewpoint Dewpoint Depression Visibility Wind Speed Wind Dir Waves Ship Positions

Trinity

Owner: Kirby Inland Marine, LP, Houston, TX. More information available from US FCC via Universal Licensing System and Coast Guard Vessel Documentation Center.

Last reported at 2017-Nov-15 14:38 UTC. Time now 2017-Nov-18 23:33 UTC.
Position N 29°46' W 095°05'.

Length 114 m; draft 2.4 m.

Type: . MMSI: 366995730.

Date/timePositionNaut miles runAvg speedWind from/ knotsBaromVisibWave heightAir tempDewpointWater temp
2017-Nov-15 14:38N 29°46' W 095°05'1 0.0
2017-Nov-13 22:34N 29°46' W 095°04'0 1.5
2017-Nov-13 22:18N 29°46' W 095°05'0 0.0
2017-Nov-12 23:46N 29°46' W 095°05'1 2.9
2017-Nov-12 23:25N 29°47' W 095°05'0 0.0
2017-Nov-12 22:42N 29°47' W 095°05'0 0.0
2017-Nov-12 22:22N 29°47' W 095°05'0 0.0
2017-Nov-12 21:55N 29°47' W 095°05'0 0.0
2017-Nov-12 21:28N 29°47' W 095°05'0 0.0
2017-Nov-12 20:21N 29°47' W 095°05'0 0.0
2017-Nov-12 19:58N 29°47' W 095°05'0 0.0
2017-Nov-12 19:18N 29°47' W 095°05'0 0.0
2017-Nov-12 18:59N 29°47' W 095°05'0 0.0
2017-Nov-12 18:17N 29°47' W 095°05'0 0.0
2017-Nov-12 17:56N 29°47' W 095°05'0 0.0
2017-Nov-12 17:27N 29°47' W 095°05'0 0.0
2017-Nov-12 17:00N 29°47' W 095°05'0 0.0
2017-Nov-12 16:11N 29°47' W 095°05'0 0.0
2017-Nov-12 15:55N 29°47' W 095°05'0 0.0
2017-Nov-12 15:30N 29°47' W 095°05'0 0.0
2017-Nov-12 14:51N 29°47' W 095°05'0 0.0
2017-Nov-12 14:30N 29°47' W 095°05'0 0.0
2017-Nov-12 14:00N 29°47' W 095°05'0 0.0
2017-Nov-12 13:29N 29°47' W 095°05'0 0.0
2017-Nov-12 12:59N 29°47' W 095°05'0 0.0
2017-Nov-12 12:28N 29°47' W 095°05'0 0.0
2017-Nov-12 11:58N 29°47' W 095°05'0 0.0
2017-Nov-12 11:25N 29°47' W 095°05'0 0.0
2017-Nov-12 10:58N 29°47' W 095°05'0 0.0
2017-Nov-12 10:30N 29°47' W 095°05'0 0.0
2017-Nov-12 09:29N 29°47' W 095°05'0 0.0
2017-Nov-12 08:59N 29°47' W 095°05'0 0.0
2017-Nov-12 08:25N 29°47' W 095°05'0 0.0
2017-Nov-12 07:12N 29°47' W 095°05'0 0.0
2017-Nov-12 06:54N 29°47' W 095°05'0 0.0
2017-Nov-12 06:30N 29°47' W 095°05'0 0.0
2017-Nov-12 05:59N 29°47' W 095°05'0 0.1
2017-Nov-12 05:30N 29°47' W 095°04'0 0.0
2017-Nov-12 05:00N 29°47' W 095°04'0 0.9
2017-Nov-12 04:30N 29°47' W 095°04'0 0.5
2017-Nov-12 03:44N 29°47' W 095°04'0 0.0
2017-Nov-12 03:30N 29°47' W 095°04'0 0.0
2017-Nov-12 02:56N 29°47' W 095°04'1 1.9
2017-Nov-12 02:25N 29°46' W 095°05'2 4.5
2017-Nov-12 01:56N 29°44' W 095°07'2 5.5
2017-Nov-12 01:30N 29°44' W 095°09'2 4.6
2017-Nov-12 01:00N 29°44' W 095°12'0 0.7
2017-Nov-12 00:18N 29°44' W 095°12'0 0.0
2017-Nov-12 00:00N 29°44' W 095°12'0 0.0
2017-Nov-11 23:24N 29°44' W 095°12'0 0.0
2017-Nov-11 22:59N 29°44' W 095°12'0 0.0
2017-Nov-11 22:30N 29°44' W 095°12'0 0.0
2017-Nov-11 21:57N 29°44' W 095°12'0 0.0
2017-Nov-11 21:27N 29°44' W 095°12'0 0.0
2017-Nov-11 20:58N 29°44' W 095°12'0 0.0
2017-Nov-11 20:28N 29°44' W 095°12'0 0.0
2017-Nov-11 19:58N 29°44' W 095°12'0 0.0
2017-Nov-11 19:30N 29°44' W 095°12'0 0.0
2017-Nov-11 18:59N 29°44' W 095°12'0 0.0
2017-Nov-11 18:28N 29°44' W 095°12'0 0.0
2017-Nov-11 18:00N 29°44' W 095°12'0 0.0
2017-Nov-11 17:29N 29°44' W 095°12'0 0.0
2017-Nov-11 10:08N 29°44' W 095°12'0 0.0
2017-Nov-11 09:40N 29°44' W 095°12'0 0.0
2017-Nov-11 09:29N 29°44' W 095°12'0 0.2
2017-Nov-11 08:59N 29°44' W 095°12'0 0.2
2017-Nov-11 08:29N 29°44' W 095°12'2 3.5
2017-Nov-11 07:59N 29°45' W 095°10'3 5.5
2017-Nov-11 07:26N 29°44' W 095°07'3 5.4
2017-Nov-11 06:50N 29°47' W 095°04'1 0.4
2017-Nov-11 04:05N 29°46' W 095°04'0 1.3
2017-Nov-11 04:00N 29°46' W 095°04'0 0.0
2017-Nov-11 03:30N 29°46' W 095°04'0 0.0
2017-Nov-11 02:57N 29°46' W 095°04'0 0.0
2017-Nov-11 02:29N 29°46' W 095°04'0 0.0
2017-Nov-11 01:46N 29°46' W 095°04'1 0.2
2017-Nov-10 20:14N 29°46' W 095°05'0 0.0
2017-Nov-10 08:51N 29°46' W 095°06'1 3.5
2017-Nov-10 08:30N 29°46' W 095°04'0 0.0
2017-Nov-10 07:54N 29°46' W 095°04'0 0.0
2017-Nov-10 07:30N 29°46' W 095°04'0 0.0
2017-Nov-10 06:54N 29°46' W 095°04'0 0.0
2017-Nov-10 06:28N 29°46' W 095°04'0 0.0
2017-Nov-10 05:52N 29°46' W 095°04'0 0.0
2017-Nov-10 05:29N 29°46' W 095°04'0 0.0
2017-Nov-10 04:41N 29°46' W 095°04'0 0.1
2017-Nov-10 04:30N 29°46' W 095°04'0 0.0
2017-Nov-09 08:52N 29°46' W 095°04'0 0.0
2017-Nov-09 05:23N 29°46' W 095°04'0 0.0
2017-Nov-09 03:10N 29°46' W 095°04'0 0.0
2017-Nov-07 22:42N 29°46' W 095°04'0 0.0
2017-Nov-07 17:43N 29°46' W 095°04'0 0.0
2017-Nov-07 17:11N 29°46' W 095°04'0 0.0
2017-Nov-07 16:53N 29°46' W 095°04'0 0.0
2017-Nov-07 14:08N 29°46' W 095°04'0 0.0
2017-Nov-07 14:00N 29°46' W 095°04'0 0.0
2017-Nov-07 13:30N 29°46' W 095°04'0 0.0
2017-Nov-07 12:57N 29°46' W 095°04'0 0.0
2017-Nov-07 12:28N 29°46' W 095°04'0 0.0
2017-Nov-07 12:00N 29°46' W 095°04'0 0.0
2017-Nov-06 22:46N 29°46' W 095°04'  
Track history (hours):
 
Tides and Currents Weather Stations Pressure Air Temp Water Temp Dewpoint Dewpoint Depression Visibility Wind Speed Wind Dir Waves Ship Positions

Trinity

Owner: Kirby Inland Marine, LP, Houston, TX. More information available from US FCC via Universal Licensing System and Coast Guard Vessel Documentation Center.

Last reported at 2017-Nov-15 14:38 UTC. Time now 2017-Nov-18 23:33 UTC.
Position N 29°46' W 095°05'.

Length 114 m; draft 2.4 m.

Type: . MMSI: 366995730.

Date/timePositionNaut miles runAvg speedWind from/ knotsBaromVisibWave heightAir tempDewpointWater temp
2017-Nov-15 14:38N 29°46' W 095°05'1 0.0
2017-Nov-13 22:34N 29°46' W 095°04'0 1.5
2017-Nov-13 22:18N 29°46' W 095°05'0 0.0
2017-Nov-12 23:46N 29°46' W 095°05'1 2.9
2017-Nov-12 23:25N 29°47' W 095°05'0 0.0
2017-Nov-12 22:42N 29°47' W 095°05'0 0.0
2017-Nov-12 22:22N 29°47' W 095°05'0 0.0
2017-Nov-12 21:55N 29°47' W 095°05'0 0.0
2017-Nov-12 21:28N 29°47' W 095°05'0 0.0
2017-Nov-12 20:21N 29°47' W 095°05'0 0.0
2017-Nov-12 19:58N 29°47' W 095°05'0 0.0
2017-Nov-12 19:18N 29°47' W 095°05'0 0.0
2017-Nov-12 18:59N 29°47' W 095°05'0 0.0
2017-Nov-12 18:17N 29°47' W 095°05'0 0.0
2017-Nov-12 17:56N 29°47' W 095°05'0 0.0
2017-Nov-12 17:27N 29°47' W 095°05'0 0.0
2017-Nov-12 17:00N 29°47' W 095°05'0 0.0
2017-Nov-12 16:11N 29°47' W 095°05'0 0.0
2017-Nov-12 15:55N 29°47' W 095°05'0 0.0
2017-Nov-12 15:30N 29°47' W 095°05'0 0.0
2017-Nov-12 14:51N 29°47' W 095°05'0 0.0
2017-Nov-12 14:30N 29°47' W 095°05'0 0.0
2017-Nov-12 14:00N 29°47' W 095°05'0 0.0
2017-Nov-12 13:29N 29°47' W 095°05'0 0.0
2017-Nov-12 12:59N 29°47' W 095°05'0 0.0
2017-Nov-12 12:28N 29°47' W 095°05'0 0.0
2017-Nov-12 11:58N 29°47' W 095°05'0 0.0
2017-Nov-12 11:25N 29°47' W 095°05'0 0.0
2017-Nov-12 10:58N 29°47' W 095°05'0 0.0
2017-Nov-12 10:30N 29°47' W 095°05'0 0.0
2017-Nov-12 09:29N 29°47' W 095°05'0 0.0
2017-Nov-12 08:59N 29°47' W 095°05'0 0.0
2017-Nov-12 08:25N 29°47' W 095°05'0 0.0
2017-Nov-12 07:12N 29°47' W 095°05'0 0.0
2017-Nov-12 06:54N 29°47' W 095°05'0 0.0
2017-Nov-12 06:30N 29°47' W 095°05'0 0.0
2017-Nov-12 05:59N 29°47' W 095°05'0 0.1
2017-Nov-12 05:30N 29°47' W 095°04'0 0.0
2017-Nov-12 05:00N 29°47' W 095°04'0 0.9
2017-Nov-12 04:30N 29°47' W 095°04'0 0.5
2017-Nov-12 03:44N 29°47' W 095°04'0 0.0
2017-Nov-12 03:30N 29°47' W 095°04'0 0.0
2017-Nov-12 02:56N 29°47' W 095°04'1 1.9
2017-Nov-12 02:25N 29°46' W 095°05'2 4.5
2017-Nov-12 01:56N 29°44' W 095°07'2 5.5
2017-Nov-12 01:30N 29°44' W 095°09'2 4.6
2017-Nov-12 01:00N 29°44' W 095°12'0 0.7
2017-Nov-12 00:18N 29°44' W 095°12'0 0.0
2017-Nov-12 00:00N 29°44' W 095°12'0 0.0
2017-Nov-11 23:24N 29°44' W 095°12'0 0.0
2017-Nov-11 22:59N 29°44' W 095°12'0 0.0
2017-Nov-11 22:30N 29°44' W 095°12'0 0.0
2017-Nov-11 21:57N 29°44' W 095°12'0 0.0
2017-Nov-11 21:27N 29°44' W 095°12'0 0.0
2017-Nov-11 20:58N 29°44' W 095°12'0 0.0
2017-Nov-11 20:28N 29°44' W 095°12'0 0.0
2017-Nov-11 19:58N 29°44' W 095°12'0 0.0
2017-Nov-11 19:30N 29°44' W 095°12'0 0.0
2017-Nov-11 18:59N 29°44' W 095°12'0 0.0
2017-Nov-11 18:28N 29°44' W 095°12'0 0.0
2017-Nov-11 18:00N 29°44' W 095°12'0 0.0
2017-Nov-11 17:29N 29°44' W 095°12'0 0.0
2017-Nov-11 10:08N 29°44' W 095°12'0 0.0
2017-Nov-11 09:40N 29°44' W 095°12'0 0.0
2017-Nov-11 09:29N 29°44' W 095°12'0 0.2
2017-Nov-11 08:59N 29°44' W 095°12'0 0.2
2017-Nov-11 08:29N 29°44' W 095°12'2 3.5
2017-Nov-11 07:59N 29°45' W 095°10'3 5.5
2017-Nov-11 07:26N 29°44' W 095°07'3 5.4
2017-Nov-11 06:50N 29°47' W 095°04'1 0.4
2017-Nov-11 04:05N 29°46' W 095°04'0 1.3
2017-Nov-11 04:00N 29°46' W 095°04'0 0.0
2017-Nov-11 03:30N 29°46' W 095°04'0 0.0
2017-Nov-11 02:57N 29°46' W 095°04'0 0.0
2017-Nov-11 02:29N 29°46' W 095°04'0 0.0
2017-Nov-11 01:46N 29°46' W 095°04'1 0.2
2017-Nov-10 20:14N 29°46' W 095°05'0 0.0
2017-Nov-10 08:51N 29°46' W 095°06'1 3.5
2017-Nov-10 08:30N 29°46' W 095°04'0 0.0
2017-Nov-10 07:54N 29°46' W 095°04'0 0.0
2017-Nov-10 07:30N 29°46' W 095°04'0 0.0
2017-Nov-10 06:54N 29°46' W 095°04'0 0.0
2017-Nov-10 06:28N 29°46' W 095°04'0 0.0
2017-Nov-10 05:52N 29°46' W 095°04'0 0.0
2017-Nov-10 05:29N 29°46' W 095°04'0 0.0
2017-Nov-10 04:41N 29°46' W 095°04'0 0.1
2017-Nov-10 04:30N 29°46' W 095°04'0 0.0
2017-Nov-09 08:52N 29°46' W 095°04'0 0.0
2017-Nov-09 05:23N 29°46' W 095°04'0 0.0
2017-Nov-09 03:10N 29°46' W 095°04'0 0.0
2017-Nov-07 22:42N 29°46' W 095°04'0 0.0
2017-Nov-07 17:43N 29°46' W 095°04'0 0.0
2017-Nov-07 17:11N 29°46' W 095°04'0 0.0
2017-Nov-07 16:53N 29°46' W 095°04'0 0.0
2017-Nov-07 14:08N 29°46' W 095°04'0 0.0
2017-Nov-07 14:00N 29°46' W 095°04'0 0.0
2017-Nov-07 13:30N 29°46' W 095°04'0 0.0
2017-Nov-07 12:57N 29°46' W 095°04'0 0.0
2017-Nov-07 12:28N 29°46' W 095°04'0 0.0
2017-Nov-07 12:00N 29°46' W 095°04'0 0.0
2017-Nov-06 22:46N 29°46' W 095°04'  

Dump ship's entire track history